Fitze, Texas
Current Conditions -  °F | °C
As of 8:15 PM on Saturday 22 Nov 2014 (Local Time) from KOCH Reporting Station
Overcast Overcast  
Wind Chill: 63°   Ceiling: 1500
Heat Index: 63°   Visibility: 10mi
Dew Point: 61°   Wind: 8mph
Humidity: 94%   Direction: 120°ESE
Pressure: 29.84"   Gusts: NA
Location:  31.7931°N, 94.5281°W
Report Text: KOCH 230215Z AUTO 12007KT 10SM OVC015 17/16 A2984 RMK AO1 LTG DSNT SW P0001
Loading
Personal Weather Stations






























Interactive Weather Map New forecast layout! Learn more

10-Day Weather Forecast

Advertisements
Track Severe Weather on mobile